createdAt,value
2023-02-18T00:01:37.355Z,4.23
2023-02-18T00:06:40.804Z,3.97
2023-02-18T00:11:44.100Z,3.23
2023-02-18T00:16:48.783Z,4.40
2023-02-18T00:21:52.076Z,4.23
2023-02-18T00:26:55.660Z,4.00
2023-02-18T00:32:00.593Z,4.60
2023-02-18T00:37:03.936Z,5.40
2023-02-18T00:42:07.359Z,4.67
2023-02-18T00:47:12.025Z,4.63
2023-02-18T00:52:15.300Z,5.53
2023-02-18T00:57:18.641Z,4.10
2023-02-18T01:02:23.365Z,3.83
2023-02-18T01:07:26.647Z,4.20
2023-02-18T01:12:29.955Z,4.43
2023-02-18T01:17:34.658Z,4.87
2023-02-18T01:22:38.594Z,3.50
2023-02-18T01:27:42.119Z,3.90
2023-02-18T01:32:46.894Z,2.63
2023-02-18T01:37:50.309Z,3.90
2023-02-18T01:42:53.808Z,2.57
2023-02-18T01:47:58.695Z,2.30
2023-02-18T01:53:02.798Z,2.83
2023-02-18T01:58:06.159Z,4.23
2023-02-18T02:03:10.991Z,3.63
2023-02-18T02:08:14.259Z,3.80
2023-02-18T02:13:25.102Z,4.63
2023-02-18T02:18:53.165Z,5.00
2023-02-18T02:24:44.673Z,4.70
2023-02-18T02:30:26.509Z,4.80
2023-02-18T02:35:33.517Z,4.87
2023-02-18T02:40:44.438Z,4.60
2023-02-18T02:45:55.974Z,4.73
2023-02-18T02:51:08.086Z,5.30
2023-02-18T02:56:16.439Z,5.07
2023-02-18T03:01:32.049Z,4.47
2023-02-18T03:07:03.147Z,4.40
2023-02-18T03:12:12.050Z,4.40
2023-02-18T03:17:23.281Z,5.07
2023-02-18T03:22:32.183Z,4.00
2023-02-18T03:27:38.950Z,5.10
2023-02-18T03:32:42.550Z,4.90
2023-02-18T03:37:52.489Z,4.47
2023-02-18T03:42:55.876Z,4.43
2023-02-18T03:47:59.167Z,4.70
2023-02-18T03:53:03.900Z,4.27
2023-02-18T03:58:07.346Z,4.00
2023-02-18T04:03:10.614Z,4.10
2023-02-18T04:08:15.275Z,3.80
2023-02-18T04:13:19.119Z,3.77
2023-02-18T04:18:22.430Z,3.90
2023-02-18T04:23:27.216Z,3.20
2023-02-18T04:28:30.556Z,4.50
2023-02-18T04:33:33.924Z,4.50
2023-02-18T04:38:38.596Z,4.40
2023-02-18T04:43:41.870Z,3.93
2023-02-18T04:48:45.226Z,4.50
2023-02-18T04:53:49.965Z,3.20
2023-02-18T04:58:53.310Z,2.90
2023-02-18T05:03:56.599Z,4.30
2023-02-18T05:09:01.291Z,4.67
2023-02-18T05:14:04.693Z,4.17
2023-02-18T05:19:08.136Z,3.70
2023-02-18T05:24:12.902Z,4.20
2023-02-18T05:29:16.314Z,5.30
2023-02-18T05:34:20.042Z,5.10
2023-02-18T05:39:24.733Z,4.70
2023-02-18T05:44:33.992Z,3.67
2023-02-18T05:49:38.222Z,5.37
2023-02-18T05:54:42.932Z,4.17
2023-02-18T05:59:46.326Z,4.10
2023-02-18T06:04:49.692Z,4.07
2023-02-18T06:09:54.512Z,5.10
2023-02-18T06:14:57.813Z,4.60
2023-02-18T06:20:01.098Z,4.20
2023-02-18T06:25:06.648Z,4.10
2023-02-18T06:30:11.027Z,3.80
2023-02-18T06:35:14.361Z,4.07
2023-02-18T06:40:19.634Z,4.40
2023-02-18T06:45:22.927Z,4.17
2023-02-18T06:50:26.158Z,4.57
2023-02-18T06:55:30.784Z,5.77
2023-02-18T07:00:34.086Z,3.97
2023-02-18T07:05:37.335Z,5.10
2023-02-18T07:10:42.078Z,4.43
2023-02-18T07:15:45.353Z,4.10
2023-02-18T07:20:48.592Z,4.20
2023-02-18T07:25:53.233Z,7.20
2023-02-18T07:30:56.534Z,6.30
2023-02-18T07:36:01.523Z,10.33
2023-02-18T07:41:06.572Z,8.10
2023-02-18T07:46:10.189Z,8.33
2023-02-18T07:51:14.251Z,8.47
2023-02-18T07:56:18.921Z,7.30
2023-02-18T08:01:22.172Z,7.60
2023-02-18T08:06:31.176Z,6.40
2023-02-18T08:11:36.836Z,5.77
2023-02-18T08:16:40.171Z,5.07
2023-02-18T08:21:43.475Z,5.53
2023-02-18T08:26:59.933Z,5.50
2023-02-18T08:32:04.421Z,4.90
2023-02-18T08:37:07.770Z,4.93
2023-02-18T08:42:12.590Z,6.13
2023-02-18T08:48:16.645Z,4.57
2023-02-18T08:52:39.050Z,4.27
2023-02-18T08:57:43.698Z,4.90
2023-02-18T09:02:47.880Z,6.73
2023-02-18T09:07:51.157Z,5.50
2023-02-18T09:12:55.799Z,5.33
2023-02-18T09:17:59.896Z,4.20
2023-02-18T09:23:03.796Z,3.57
2023-02-18T09:28:08.426Z,2.27
2023-02-18T09:33:11.641Z,1.90
2023-02-18T09:38:17.496Z,2.27
2023-02-18T09:43:28.546Z,2.20
2023-02-18T09:48:35.181Z,1.93
2023-02-18T09:53:38.440Z,1.50
2023-02-18T09:58:44.479Z,1.47
2023-02-18T10:03:48.332Z,1.40
2023-02-18T10:08:54.611Z,3.10
2023-02-18T10:14:01.142Z,1.77
2023-02-18T10:19:16.636Z,1.70
2023-02-18T10:24:30.756Z,2.70
2023-02-18T10:29:36.130Z,2.00
2023-02-18T10:34:43.664Z,1.80
2023-02-18T10:39:59.069Z,1.60
2023-02-18T10:45:13.866Z,1.90
2023-02-18T10:50:28.005Z,1.37
2023-02-18T10:55:39.748Z,1.60
2023-02-18T11:00:44.455Z,1.80
2023-02-18T11:05:49.958Z,1.40
2023-02-18T11:10:54.715Z,1.90
2023-02-18T11:16:02.563Z,2.00
2023-02-18T11:21:08.776Z,2.20
2023-02-18T11:26:16.809Z,1.70
2023-02-18T11:31:24.882Z,1.40
2023-02-18T11:36:32.576Z,2.20
2023-02-18T11:41:38.634Z,2.50
2023-02-18T11:46:59.232Z,2.13
2023-02-18T11:52:15.562Z,2.30
2023-02-18T11:57:21.289Z,1.90
2023-02-18T12:02:35.081Z,2.40
2023-02-18T12:07:45.587Z,3.30
2023-02-18T12:12:52.881Z,2.33
2023-02-18T12:18:20.443Z,1.10
2023-02-18T12:23:33.938Z,1.37
2023-02-18T12:28:54.935Z,1.20
2023-02-18T12:34:18.262Z,1.33
2023-02-18T12:39:37.510Z,1.60
2023-02-18T12:44:46.216Z,1.20
2023-02-18T12:50:28.987Z,1.10
2023-02-18T12:56:01.550Z,1.27
2023-02-18T13:01:32.088Z,1.30
2023-02-18T13:07:17.163Z,1.00
2023-02-18T13:12:28.012Z,1.10
2023-02-18T13:17:37.051Z,1.10
2023-02-18T13:22:41.211Z,1.10
2023-02-18T13:27:56.162Z,1.00
2023-02-18T13:33:10.196Z,0.93
2023-02-18T13:38:48.388Z,1.00
2023-02-18T13:43:54.143Z,1.00
2023-02-18T13:49:09.490Z,0.80
2023-02-18T13:54:22.895Z,0.70
2023-02-18T13:59:35.941Z,0.90
2023-02-18T14:04:53.997Z,0.60
2023-02-18T14:09:58.975Z,0.70
2023-02-18T14:15:09.976Z,0.70
2023-02-18T14:20:34.325Z,0.87
2023-02-18T14:25:42.214Z,0.70
2023-02-18T14:30:48.388Z,0.90
2023-02-18T14:35:58.656Z,0.70
2023-02-18T14:41:34.526Z,0.80
2023-02-18T14:46:50.341Z,0.90
2023-02-18T14:51:58.979Z,0.77
2023-02-18T14:57:08.526Z,1.10
2023-02-18T15:02:24.384Z,0.90
2023-02-18T15:07:28.078Z,0.80
2023-02-18T15:12:33.813Z,0.80
2023-02-18T15:17:39.363Z,0.70
2023-02-18T15:22:43.193Z,1.10
2023-02-18T15:27:47.445Z,0.50
2023-02-18T15:33:01.377Z,0.50
2023-02-18T15:38:06.290Z,0.53
2023-02-18T15:43:13.311Z,0.70
2023-02-18T15:48:25.749Z,0.30
2023-02-18T15:53:30.189Z,0.70
2023-02-18T15:58:35.422Z,0.83
2023-02-18T16:03:47.565Z,0.80
2023-02-18T16:09:00.507Z,0.70
2023-02-18T16:14:07.608Z,0.30
2023-02-18T16:19:25.787Z,0.80
2023-02-18T16:24:33.443Z,1.27
2023-02-18T16:29:39.113Z,1.20
2023-02-18T16:34:43.863Z,0.83
2023-02-18T16:39:49.555Z,0.90
2023-02-18T16:44:53.414Z,1.30
2023-02-18T16:50:00.212Z,0.97
2023-02-18T16:55:06.942Z,0.70
2023-02-18T17:00:12.599Z,1.03
2023-02-18T17:05:26.797Z,1.67
2023-02-18T17:10:30.850Z,1.20
2023-02-18T17:15:36.722Z,1.63
2023-02-18T17:20:42.147Z,1.63
2023-02-18T17:25:48.676Z,2.23
2023-02-18T17:30:59.389Z,1.80
2023-02-18T17:36:05.572Z,2.23
2023-02-18T17:41:09.664Z,1.70
2023-02-18T17:46:15.466Z,1.43
2023-02-18T17:51:27.459Z,2.10
2023-02-18T17:56:32.155Z,2.77
2023-02-18T18:01:36.895Z,2.37
2023-02-18T18:06:43.364Z,1.17
2023-02-18T18:11:48.705Z,0.90
2023-02-18T18:16:54.549Z,1.50
2023-02-18T18:22:01.539Z,1.23
2023-02-18T18:27:07.328Z,1.60
2023-02-18T18:32:13.660Z,1.50
2023-02-18T18:37:19.973Z,1.40
2023-02-18T18:42:24.724Z,1.33
2023-02-18T18:47:29.946Z,1.60
2023-02-18T18:52:35.223Z,1.40
2023-02-18T18:57:39.603Z,1.30
2023-02-18T19:02:45.197Z,1.33
2023-02-18T19:07:50.937Z,1.30
2023-02-18T19:12:56.127Z,1.50
2023-02-18T19:18:00.720Z,1.13
2023-02-18T19:23:07.167Z,1.07
2023-02-18T19:28:14.183Z,0.90
2023-02-18T19:33:20.354Z,1.20
2023-02-18T19:38:25.987Z,1.00
2023-02-18T19:43:32.022Z,1.13
2023-02-18T19:48:36.363Z,1.37
2023-02-18T19:53:42.706Z,1.87
2023-02-18T19:58:47.126Z,1.67
2023-02-18T20:03:52.683Z,1.33
2023-02-18T20:08:59.143Z,1.20
2023-02-18T20:14:04.521Z,1.07
2023-02-18T20:19:09.208Z,1.07
2023-02-18T20:24:20.605Z,1.30
2023-02-18T20:29:26.311Z,1.60
2023-02-18T20:34:31.756Z,1.40
2023-02-18T20:39:46.333Z,1.30
2023-02-18T20:44:51.833Z,1.10
2023-02-18T20:49:57.732Z,1.13
2023-02-18T20:55:04.306Z,1.27
2023-02-18T21:00:10.478Z,1.20
2023-02-18T21:05:16.506Z,1.40
2023-02-18T21:10:23.295Z,1.53
2023-02-18T21:15:28.642Z,1.30
2023-02-18T21:20:34.503Z,1.33
2023-02-18T21:25:41.141Z,2.60
2023-02-18T21:30:47.038Z,2.10
2023-02-18T21:35:52.687Z,2.23
2023-02-18T21:40:58.497Z,3.73
2023-02-18T21:46:10.126Z,3.47
2023-02-18T21:51:37.545Z,1.97
2023-02-18T21:56:42.808Z,1.10
2023-02-18T22:01:46.138Z,3.90
2023-02-18T22:06:49.464Z,3.33
2023-02-18T22:11:54.221Z,3.60
2023-02-18T22:16:57.843Z,3.33
2023-02-18T22:22:02.651Z,2.50
2023-02-18T22:27:07.303Z,3.30
2023-02-18T22:32:10.588Z,3.10
2023-02-18T22:37:14.057Z,3.30
2023-02-18T22:42:18.681Z,3.20
2023-02-18T22:47:21.914Z,2.93
2023-02-18T22:52:25.193Z,3.60
2023-02-18T22:57:29.868Z,3.40
2023-02-18T23:02:33.092Z,4.40
2023-02-18T23:07:36.300Z,3.13
2023-02-18T23:12:40.937Z,3.27
2023-02-18T23:17:44.137Z,3.07
2023-02-18T23:22:47.314Z,3.00
2023-02-18T23:27:51.926Z,2.83
2023-02-18T23:38:26.207Z,2.60
2023-02-18T23:43:33.377Z,2.60
2023-02-18T23:48:38.395Z,2.67
2023-02-18T23:53:41.984Z,2.20
2023-02-18T23:58:52.223Z,2.77
